Time;durP1;ratioP1;P1;durP2;ratioP2;P2;SDS_P1;SDS_P2;PMS_P1;PMS_P2;Temp;Humidity;BMP_temperature;BMP_pressure;BME280_temperature;BME280_humidity;BME280_pressure;Samples;Min_cycle;Max_cycle;Signal;HPM_P1;HPM_P2
2023/09/23 00:01:26;;;;;;;2.58;1.75;;;12.30;99.90;;;;;;5085411;28;20928;-67
2023/09/23 00:03:53;;;;;;;3.00;1.70;;;12.20;99.90;;;;;;5076884;28;20434;-66
2023/09/23 00:06:20;;;;;;;2.10;1.90;;;12.10;99.90;;;;;;5077168;28;20649;-66
2023/09/23 00:08:47;;;;;;;2.00;1.70;;;12.10;99.90;;;;;;5080732;28;20410;-67
2023/09/23 00:11:14;;;;;;;2.10;1.80;;;12.10;99.90;;;;;;5072775;28;20441;-66
2023/09/23 00:13:42;;;;;;;2.00;1.70;;;12.00;99.90;;;;;;5085584;28;20434;-67
2023/09/23 00:16:11;;;;;;;2.13;1.80;;;12.00;99.90;;;;;;5084687;28;20425;-68
2023/09/23 00:18:38;;;;;;;2.53;2.23;;;12.00;99.90;;;;;;5085687;28;20457;-68
2023/09/23 00:21:05;;;;;;;2.70;2.50;;;12.00;99.90;;;;;;5084621;28;20429;-67
2023/09/23 00:23:32;;;;;;;3.40;3.08;;;12.00;99.90;;;;;;5078822;28;20426;-67
2023/09/23 00:26:00;;;;;;;4.50;2.47;;;12.00;99.90;;;;;;5080119;28;20441;-67
2023/09/23 00:28:30;;;;;;;2.70;2.30;;;12.10;99.90;;;;;;5077315;28;20441;-66
2023/09/23 00:31:05;;;;;;;2.75;2.45;;;12.10;99.90;;;;;;5081553;28;20437;-66
2023/09/23 00:33:32;;;;;;;3.55;2.30;;;12.00;99.90;;;;;;5091882;28;20457;-68
2023/09/23 00:35:59;;;;;;;3.10;2.00;;;12.10;99.90;;;;;;5108150;28;20524;-66
2023/09/23 00:38:27;;;;;;;2.63;2.42;;;12.00;99.90;;;;;;5094638;28;20425;-66
2023/09/23 00:40:55;;;;;;;2.63;2.42;;;12.10;99.90;;;;;;5089849;28;20850;-68
2023/09/23 00:43:23;;;;;;;3.15;2.80;;;12.00;99.90;;;;;;5086991;28;20430;-68
2023/09/23 00:45:54;;;;;;;2.80;2.50;;;12.10;99.90;;;;;;5081511;28;20425;-68
2023/09/23 00:48:23;;;;;;;3.50;3.00;;;12.00;99.90;;;;;;5087801;28;20429;-67
2023/09/23 00:50:51;;;;;;;2.78;2.50;;;12.00;99.90;;;;;;5090049;28;20792;-68
2023/09/23 00:53:18;;;;;;;3.03;2.63;;;12.00;99.90;;;;;;5088684;28;20429;-66
2023/09/23 00:55:48;;;;;;;2.53;2.05;;;12.00;99.90;;;;;;5090660;28;20440;-67
2023/09/23 00:58:16;;;;;;;2.83;2.10;;;11.90;99.90;;;;;;5088382;28;20788;-67
2023/09/23 01:00:43;;;;;;;3.95;2.30;;;11.90;99.90;;;;;;5087497;28;20421;-68
2023/09/23 01:03:10;;;;;;;3.38;2.50;;;11.90;99.90;;;;;;5077873;28;20976;-67
2023/09/23 01:05:39;;;;;;;3.30;2.25;;;11.90;99.90;;;;;;5090643;28;20434;-66
2023/09/23 01:08:20;;;;;;;2.88;2.00;;;11.90;99.90;;;;;;5088810;28;20435;-67
2023/09/23 01:10:48;;;;;;;2.40;2.13;;;11.90;99.90;;;;;;5086324;28;20423;-65
2023/09/23 01:13:20;;;;;;;3.70;2.40;;;11.80;99.90;;;;;;5080049;28;20422;-66
2023/09/23 01:15:46;;;;;;;2.38;2.17;;;11.80;99.90;;;;;;5084711;28;20444;-67
2023/09/23 01:18:14;;;;;;;4.80;2.42;;;11.80;99.90;;;;;;5088388;28;20437;-66
2023/09/23 01:20:43;;;;;;;3.28;2.80;;;11.80;99.90;;;;;;5088201;28;20433;-67
2023/09/23 01:23:12;;;;;;;4.40;3.20;;;11.80;99.90;;;;;;5089507;28;20441;-67
2023/09/23 01:25:39;;;;;;;3.70;3.25;;;11.90;99.90;;;;;;5084865;28;20500;-68
2023/09/23 01:28:08;;;;;;;3.55;3.25;;;11.90;99.90;;;;;;5082409;28;20430;-68
2023/09/23 01:30:35;;;;;;;2.40;2.17;;;12.00;99.90;;;;;;5080947;28;20512;-68
2023/09/23 01:33:04;;;;;;;2.85;2.50;;;12.10;99.90;;;;;;5085565;28;20436;-67
2023/09/23 01:35:32;;;;;;;2.40;2.10;;;12.00;99.90;;;;;;5082939;28;20430;-67
2023/09/23 01:37:59;;;;;;;2.42;1.80;;;12.00;99.90;;;;;;5085323;28;20769;-67
2023/09/23 01:40:29;;;;;;;2.00;1.70;;;12.00;99.90;;;;;;5081903;28;20439;-67
2023/09/23 01:42:57;;;;;;;2.70;1.90;;;12.00;99.90;;;;;;5085895;28;20518;-67
2023/09/23 01:45:25;;;;;;;2.20;1.60;;;12.00;99.90;;;;;;5087874;28;20448;-66
2023/09/23 01:47:52;;;;;;;2.67;1.90;;;12.00;99.90;;;;;;5085841;28;20427;-65
2023/09/23 01:50:20;;;;;;;2.15;1.60;;;12.00;99.90;;;;;;5089688;28;20433;-68
2023/09/23 01:52:47;;;;;;;2.40;1.60;;;12.00;99.90;;;;;;5084325;28;20516;-67
2023/09/23 01:55:16;;;;;;;1.85;1.50;;;12.00;99.90;;;;;;5087690;28;20432;-68
2023/09/23 01:57:44;;;;;;;2.50;1.80;;;12.00;99.90;;;;;;5083215;28;20435;-68
2023/09/23 02:00:17;;;;;;;2.08;1.88;;;11.90;99.90;;;;;;5088366;28;21003;-67
2023/09/23 02:02:44;;;;;;;2.38;1.75;;;11.90;99.90;;;;;;5087424;28;20791;-67
2023/09/23 02:05:11;;;;;;;2.30;2.05;;;11.90;99.90;;;;;;5087139;28;20437;-68
2023/09/23 02:07:39;;;;;;;2.00;1.70;;;11.80;99.90;;;;;;5082327;28;21311;-68
2023/09/23 02:10:09;;;;;;;2.10;1.60;;;11.80;99.90;;;;;;5084074;28;20799;-67
2023/09/23 02:12:35;;;;;;;1.60;1.50;;;11.70;99.90;;;;;;5082828;28;20477;-68
2023/09/23 02:15:06;;;;;;;2.00;1.40;;;11.70;99.90;;;;;;5088656;28;20448;-66
2023/09/23 02:17:36;;;;;;;1.90;1.50;;;11.70;99.90;;;;;;5081815;28;20425;-68
2023/09/23 02:20:07;;;;;;;2.35;1.70;;;11.70;99.90;;;;;;5085666;22;20494;-68
2023/09/23 02:22:37;;;;;;;1.70;1.60;;;11.60;99.90;;;;;;5027629;28;20422;-68
2023/09/23 02:25:07;;;;;;;3.10;1.60;;;11.60;99.90;;;;;;5035049;28;20439;-68
2023/09/23 02:27:34;;;;;;;1.70;1.55;;;11.60;99.90;;;;;;5035144;28;20433;-67
2023/09/23 02:30:03;;;;;;;2.97;1.70;;;11.60;99.90;;;;;;5028492;28;20918;-68
2023/09/23 02:32:29;;;;;;;2.55;1.70;;;11.60;99.90;;;;;;5036585;28;22147;-68
2023/09/23 02:34:56;;;;;;;2.60;1.60;;;11.60;99.90;;;;;;5037284;28;20440;-68
2023/09/23 02:37:26;;;;;;;2.50;2.00;;;11.60;99.90;;;;;;5028998;28;20449;-68
2023/09/23 02:39:53;;;;;;;3.60;1.80;;;11.50;99.90;;;;;;5033709;28;20502;-68
2023/09/23 02:42:19;;;;;;;2.25;1.83;;;11.60;99.90;;;;;;5034436;28;20438;-68
2023/09/23 02:44:46;;;;;;;3.97;2.10;;;11.50;99.90;;;;;;5028408;28;21012;-69
2023/09/23 02:47:15;;;;;;;1.80;1.52;;;11.50;99.90;;;;;;5029597;28;20466;-68
2023/09/23 02:49:44;;;;;;;2.97;1.60;;;11.50;99.90;;;;;;5037060;28;20428;-68
2023/09/23 02:52:11;;;;;;;3.30;1.70;;;11.50;99.90;;;;;;5036523;28;20442;-68
2023/09/23 02:54:38;;;;;;;2.60;1.50;;;11.50;99.90;;;;;;5034700;28;20422;-68
2023/09/23 02:57:04;;;;;;;4.57;1.38;;;11.50;99.90;;;;;;5033788;28;20411;-68
2023/09/23 02:59:41;;;;;;;2.35;1.90;;;11.50;99.90;;;;;;5027465;28;20427;-69
2023/09/23 03:02:08;;;;;;;2.57;1.50;;;11.50;99.90;;;;;;5025557;28;20505;-68
2023/09/23 03:04:36;;;;;;;3.10;1.80;;;11.50;99.90;;;;;;5026939;28;20455;-69
2023/09/23 03:07:03;;;;;;;3.00;1.50;;;11.40;99.90;;;;;;5035671;28;20426;-69
2023/09/23 03:09:32;;;;;;;2.20;1.50;;;11.40;99.90;;;;;;5029384;28;20795;-69
2023/09/23 03:12:00;;;;;;;4.05;1.50;;;11.40;99.90;;;;;;5035028;28;20501;-68
2023/09/23 03:14:36;;;;;;;4.10;1.50;;;11.40;99.90;;;;;;5029026;28;20427;-68
2023/09/23 03:17:03;;;;;;;2.95;1.70;;;11.40;99.90;;;;;;5027682;28;21117;-68
2023/09/23 03:19:32;;;;;;;3.00;1.80;;;11.40;99.90;;;;;;5028288;28;20431;-68
2023/09/23 03:22:01;;;;;;;2.67;1.83;;;11.40;99.90;;;;;;5028868;28;20426;-68
2023/09/23 03:24:29;;;;;;;2.83;1.80;;;11.40;99.90;;;;;;5029572;28;20422;-68
2023/09/23 03:26:58;;;;;;;3.93;1.70;;;11.30;99.90;;;;;;5036126;28;20424;-68
2023/09/23 03:29:28;;;;;;;2.60;1.55;;;11.30;99.90;;;;;;5030100;28;20526;-69
2023/09/23 03:31:56;;;;;;;2.40;1.40;;;11.30;99.90;;;;;;5027334;28;20435;-68
2023/09/23 03:34:23;;;;;;;2.80;1.60;;;11.30;99.90;;;;;;5028452;28;20419;-68
2023/09/23 03:36:51;;;;;;;4.10;1.70;;;11.30;99.90;;;;;;5033684;28;20494;-68
2023/09/23 03:39:20;;;;;;;1.92;1.33;;;11.20;99.90;;;;;;5032634;28;20506;-68
2023/09/23 03:41:47;;;;;;;3.40;1.83;;;11.20;99.90;;;;;;5035742;28;20427;-68
2023/09/23 03:44:15;;;;;;;2.97;1.48;;;11.20;99.90;;;;;;5026753;28;20431;-69
2023/09/23 03:46:43;;;;;;;3.50;1.90;;;11.20;99.90;;;;;;5026112;28;20434;-68
2023/09/23 03:49:10;;;;;;;3.28;2.10;;;11.20;99.90;;;;;;5027460;28;20439;-68
2023/09/23 03:51:37;;;;;;;3.20;2.20;;;11.20;99.90;;;;;;5028435;28;20423;-69
2023/09/23 03:54:04;;;;;;;2.80;1.90;;;11.20;99.90;;;;;;5036520;28;20422;-68
2023/09/23 03:56:33;;;;;;;2.58;2.10;;;11.20;99.90;;;;;;5035918;28;20440;-69
2023/09/23 03:59:00;;;;;;;3.53;1.90;;;11.20;99.90;;;;;;5026939;28;20439;-68
2023/09/23 04:01:27;;;;;;;3.53;1.90;;;11.20;99.90;;;;;;5025151;28;20438;-68
2023/09/23 04:03:54;;;;;;;3.67;2.20;;;11.20;99.90;;;;;;5028167;28;20438;-69
2023/09/23 04:06:21;;;;;;;2.53;1.80;;;11.20;99.90;;;;;;5025944;28;20805;-68
2023/09/23 04:08:49;;;;;;;3.67;1.80;;;11.20;99.90;;;;;;5026980;28;20427;-68
2023/09/23 04:11:17;;;;;;;2.57;2.10;;;11.20;99.90;;;;;;5026286;28;20820;-68
2023/09/23 04:13:46;;;;;;;4.20;2.08;;;11.20;99.90;;;;;;5029479;28;20476;-68
2023/09/23 04:16:13;;;;;;;3.25;1.70;;;11.20;99.90;;;;;;5025659;28;20443;-68
2023/09/23 04:18:40;;;;;;;3.67;1.90;;;11.20;99.90;;;;;;5026430;28;20821;-68
2023/09/23 04:21:08;;;;;;;3.03;1.90;;;11.20;99.90;;;;;;5028057;28;20785;-68
2023/09/23 04:23:35;;;;;;;3.03;2.10;;;11.10;99.90;;;;;;5026450;28;20419;-68
2023/09/23 04:26:03;;;;;;;3.22;2.17;;;11.20;99.90;;;;;;5026919;28;20438;-68
2023/09/23 04:28:30;;;;;;;3.95;2.13;;;11.20;99.90;;;;;;5029043;28;20446;-68
2023/09/23 04:30:58;;;;;;;4.47;2.40;;;11.20;99.90;;;;;;5026828;28;20427;-68
2023/09/23 04:33:27;;;;;;;3.92;2.40;;;11.20;99.90;;;;;;5028145;28;20431;-68
2023/09/23 04:35:55;;;;;;;2.85;2.20;;;11.10;99.90;;;;;;5033116;28;20415;-69
2023/09/23 04:38:22;;;;;;;4.45;2.10;;;11.10;99.90;;;;;;5029353;28;20948;-67
2023/09/23 04:40:49;;;;;;;4.18;2.30;;;11.10;99.90;;;;;;5025658;28;20508;-68
2023/09/23 04:43:16;;;;;;;3.10;2.00;;;11.10;99.90;;;;;;5025685;28;20427;-68
2023/09/23 04:45:45;;;;;;;6.13;2.50;;;11.10;99.90;;;;;;5026209;28;20438;-68
2023/09/23 04:48:14;;;;;;;4.00;2.70;;;11.10;99.90;;;;;;5026389;28;20457;-68
2023/09/23 04:50:41;;;;;;;3.40;2.90;;;11.10;99.90;;;;;;5027659;28;20423;-68
2023/09/23 04:53:08;;;;;;;3.78;2.30;;;11.10;99.90;;;;;;5032538;28;20417;-69
2023/09/23 04:55:35;;;;;;;4.03;2.60;;;11.10;99.90;;;;;;5028926;28;20790;-68
2023/09/23 04:58:04;;;;;;;4.05;2.40;;;11.10;99.90;;;;;;5026992;28;20503;-69
2023/09/23 05:00:36;;;;;;;5.18;2.50;;;11.10;99.90;;;;;;5026633;28;20438;-69
2023/09/23 05:03:03;;;;;;;3.30;1.90;;;11.00;99.90;;;;;;5026229;28;20427;-69
2023/09/23 05:05:31;;;;;;;3.30;2.17;;;11.00;99.90;;;;;;5031618;28;20421;-69
2023/09/23 05:07:59;;;;;;;3.30;2.08;;;11.00;99.90;;;;;;5026423;28;20439;-69
2023/09/23 05:10:26;;;;;;;3.90;1.98;;;11.00;99.90;;;;;;5032172;28;20469;-68
2023/09/23 05:12:55;;;;;;;2.65;2.00;;;11.00;99.90;;;;;;5025603;28;20889;-68
2023/09/23 05:15:24;;;;;;;4.78;2.00;;;11.00;99.90;;;;;;5025561;28;20849;-68
2023/09/23 05:17:50;;;;;;;4.70;2.03;;;11.00;99.90;;;;;;5026761;28;20458;-68
2023/09/23 05:20:19;;;;;;;4.18;2.50;;;10.90;99.90;;;;;;5027246;28;20438;-68
2023/09/23 05:22:47;;;;;;;5.03;2.30;;;11.00;99.90;;;;;;5025834;28;20443;-68
2023/09/23 05:25:14;;;;;;;3.72;2.20;;;11.00;99.90;;;;;;5027795;28;20446;-68
2023/09/23 05:27:42;;;;;;;4.70;2.60;;;11.00;99.90;;;;;;5026524;28;20434;-68
2023/09/23 05:30:11;;;;;;;4.65;2.40;;;11.00;99.90;;;;;;5024921;28;20446;-68
2023/09/23 05:32:38;;;;;;;4.55;2.22;;;11.00;99.90;;;;;;5027239;28;20457;-68
2023/09/23 05:35:09;;;;;;;3.95;2.50;;;11.00;99.90;;;;;;5038186;28;20465;-68
2023/09/23 05:37:35;;;;;;;3.85;2.20;;;11.00;99.90;;;;;;5029687;28;20458;-68
2023/09/23 05:40:18;;;;;;;6.00;2.63;;;11.00;99.90;;;;;;5030018;28;20724;-67
2023/09/23 05:42:46;;;;;;;3.40;2.60;;;11.00;99.90;;;;;;5029590;28;20443;-68
2023/09/23 05:45:14;;;;;;;2.80;2.60;;;11.00;99.90;;;;;;5034311;28;20418;-68
2023/09/23 05:47:41;;;;;;;2.83;2.30;;;11.00;99.90;;;;;;5031256;28;20431;-67
2023/09/23 05:50:09;;;;;;;4.18;2.90;;;11.00;99.90;;;;;;5034076;28;20461;-68
2023/09/23 05:52:37;;;;;;;4.70;2.70;;;11.00;99.90;;;;;;5035528;28;20458;-70
2023/09/23 05:55:06;;;;;;;4.75;2.65;;;11.00;99.90;;;;;;5025217;28;20419;-69
2023/09/23 05:57:34;;;;;;;4.13;2.40;;;11.10;99.90;;;;;;5036908;28;20419;-69
2023/09/23 06:00:02;;;;;;;4.05;2.65;;;11.10;99.90;;;;;;5028916;28;20435;-69
2023/09/23 06:02:29;;;;;;;3.53;2.53;;;11.10;99.90;;;;;;5027733;28;20432;-69
2023/09/23 06:04:55;;;;;;;3.88;2.50;;;11.10;99.90;;;;;;5030496;28;20622;-69
2023/09/23 06:07:24;;;;;;;4.95;3.20;;;11.10;99.90;;;;;;5028353;28;20458;-69
2023/09/23 06:09:51;;;;;;;4.40;3.00;;;11.10;99.90;;;;;;5027664;28;20434;-69
2023/09/23 06:12:20;;;;;;;4.38;2.90;;;11.20;99.90;;;;;;5025183;28;20430;-69
2023/09/23 06:14:46;;;;;;;5.40;2.92;;;11.20;99.90;;;;;;5032742;28;20430;-69
2023/09/23 06:17:13;;;;;;;4.53;2.30;;;11.20;99.90;;;;;;5034498;28;20458;-69
2023/09/23 06:19:41;;;;;;;3.47;2.50;;;11.20;99.90;;;;;;5028772;28;20492;-69
2023/09/23 06:22:07;;;;;;;2.90;2.28;;;11.20;99.90;;;;;;5025940;28;20501;-68
2023/09/23 06:24:34;;;;;;;4.15;2.50;;;11.20;99.90;;;;;;5027366;28;20442;-69
2023/09/23 06:27:01;;;;;;;3.00;2.10;;;11.30;99.90;;;;;;5032434;28;20942;-68
2023/09/23 06:29:30;;;;;;;3.37;2.00;;;11.30;99.90;;;;;;5032321;28;20524;-68
2023/09/23 06:31:57;;;;;;;2.63;1.98;;;11.30;99.90;;;;;;5028110;28;20431;-68
2023/09/23 06:34:23;;;;;;;4.78;2.05;;;11.30;99.90;;;;;;5026015;28;20427;-68
2023/09/23 06:36:50;;;;;;;2.00;1.50;;;11.30;99.90;;;;;;5027792;28;20430;-68
2023/09/23 06:39:17;;;;;;;2.80;2.10;;;11.40;99.90;;;;;;5031606;28;20442;-68
2023/09/23 06:41:43;;;;;;;4.43;2.00;;;11.40;99.90;;;;;;5028329;28;20438;-69
2023/09/23 06:44:10;;;;;;;3.67;1.95;;;11.40;99.90;;;;;;5028174;28;20498;-68
2023/09/23 06:46:38;;;;;;;3.35;1.90;;;11.40;99.90;;;;;;5027352;28;20442;-68
2023/09/23 06:49:05;;;;;;;2.40;1.88;;;11.50;99.90;;;;;;5027702;28;20439;-68
2023/09/23 06:51:32;;;;;;;2.80;1.70;;;11.50;99.90;;;;;;5031828;28;20406;-68
2023/09/23 06:53:58;;;;;;;3.33;2.00;;;11.60;99.90;;;;;;5030245;28;20415;-68
2023/09/23 06:56:25;;;;;;;3.10;1.60;;;11.70;99.90;;;;;;5033014;28;20424;-68
2023/09/23 06:58:52;;;;;;;3.40;1.70;;;11.70;99.90;;;;;;5023357;28;20434;-68
2023/09/23 07:01:21;;;;;;;6.10;1.80;;;11.80;99.90;;;;;;5034602;28;20515;-68
2023/09/23 07:03:49;;;;;;;5.35;1.90;;;11.90;99.90;;;;;;5028866;28;20442;-69
2023/09/23 07:06:16;;;;;;;2.80;1.75;;;12.00;99.90;;;;;;5034161;28;20423;-68
2023/09/23 07:08:43;;;;;;;2.70;1.60;;;12.20;99.90;;;;;;5029801;28;20442;-68
2023/09/23 07:11:12;;;;;;;3.00;1.60;;;12.30;99.90;;;;;;5036035;28;20917;-68
2023/09/23 07:13:39;;;;;;;5.15;1.83;;;12.40;99.90;;;;;;5024609;28;20440;-68
2023/09/23 07:16:06;;;;;;;5.10;1.80;;;12.50;99.90;;;;;;5031240;28;20797;-68
2023/09/23 07:18:33;;;;;;;3.20;1.70;;;12.70;99.90;;;;;;5030140;28;20917;-68
2023/09/23 07:21:02;;;;;;;3.92;1.80;;;12.90;99.90;;;;;;5019350;28;20519;-73
2023/09/23 07:23:29;;;;;;;2.65;1.40;;;13.10;99.90;;;;;;5011081;28;20508;-73
2023/09/23 07:25:55;;;;;;;2.67;1.33;;;13.30;99.90;;;;;;5011464;28;20443;-73
2023/09/23 07:28:22;;;;;;;3.03;1.50;;;13.40;99.90;;;;;;5000659;28;20752;-73
2023/09/23 07:30:49;;;;;;;3.03;1.50;;;13.40;99.90;;;;;;5005652;28;20439;-67
2023/09/23 07:33:16;;;;;;;2.13;1.48;;;13.50;99.90;;;;;;5003153;28;20444;-68
2023/09/23 07:35:43;;;;;;;3.45;1.98;;;13.50;99.90;;;;;;5006362;28;20436;-69
2023/09/23 07:38:12;;;;;;;2.10;1.40;;;13.60;99.90;;;;;;5006379;28;20519;-69
2023/09/23 07:40:40;;;;;;;3.00;1.45;;;13.80;99.90;;;;;;5005089;28;20456;-68
2023/09/23 07:43:07;;;;;;;5.10;2.05;;;13.90;99.90;;;;;;5009762;28;20445;-69
2023/09/23 07:45:34;;;;;;;4.60;2.08;;;14.00;99.90;;;;;;5006481;28;20431;-68
2023/09/23 07:48:01;;;;;;;4.20;2.40;;;14.20;99.90;;;;;;5011483;28;20919;-68
2023/09/23 07:50:28;;;;;;;3.40;2.60;;;14.30;99.90;;;;;;5007516;28;20490;-67
2023/09/23 07:52:54;;;;;;;3.30;1.80;;;14.40;99.90;;;;;;5002786;28;20439;-68
2023/09/23 07:55:22;;;;;;;5.10;1.80;;;14.70;98.90;;;;;;5007742;28;20813;-68
2023/09/23 07:57:49;;;;;;;3.92;1.70;;;14.80;97.70;;;;;;5014361;28;20516;-68
2023/09/23 08:00:17;;;;;;;3.17;1.50;;;14.90;96.80;;;;;;5009566;28;20437;-69
2023/09/23 08:02:43;;;;;;;3.90;1.70;;;14.90;97.10;;;;;;5007276;28;20432;-68
2023/09/23 08:05:10;;;;;;;2.97;1.30;;;15.00;96.10;;;;;;5006931;28;20440;-68
2023/09/23 08:07:37;;;;;;;3.78;1.38;;;15.00;95.90;;;;;;5007815;28;20436;-68
2023/09/23 08:10:04;;;;;;;4.07;1.20;;;15.00;95.60;;;;;;5008936;28;20437;-68
2023/09/23 08:12:35;;;;;;;2.10;1.30;;;15.00;95.90;;;;;;5008882;28;20979;-68
2023/09/23 08:15:03;;;;;;;3.72;1.40;;;15.10;95.90;;;;;;5004806;28;20432;-68
2023/09/23 08:17:30;;;;;;;2.47;1.42;;;15.10;95.60;;;;;;5004358;28;20811;-68
2023/09/23 08:19:58;;;;;;;3.38;1.20;;;15.20;95.50;;;;;;5013264;28;20435;-68
2023/09/23 08:22:24;;;;;;;4.18;1.20;;;15.40;96.00;;;;;;5027216;28;20433;-68
2023/09/23 08:24:51;;;;;;;2.55;1.70;;;15.60;95.40;;;;;;5027347;28;20487;-68
2023/09/23 08:27:18;;;;;;;1.83;1.02;;;15.70;94.20;;;;;;5023449;28;20773;-68
2023/09/23 08:29:46;;;;;;;2.50;1.23;;;15.70;94.20;;;;;;5028158;28;21383;-68
2023/09/23 08:32:13;;;;;;;2.58;1.70;;;15.80;94.00;;;;;;5026717;28;20434;-68
2023/09/23 08:34:39;;;;;;;3.10;1.10;;;16.00;93.00;;;;;;5028012;28;20434;-66
2023/09/23 08:37:06;;;;;;;3.85;1.10;;;16.10;92.30;;;;;;5035242;28;20447;-65
2023/09/23 08:39:33;;;;;;;2.70;1.25;;;16.10;92.40;;;;;;5033918;28;20426;-67
2023/09/23 08:42:03;;;;;;;2.17;1.00;;;16.00;91.90;;;;;;5035211;28;20431;-65
2023/09/23 08:44:33;;;;;;;2.72;1.25;;;15.90;91.80;;;;;;5031390;28;20434;-65
2023/09/23 08:47:01;;;;;;;2.80;1.20;;;15.80;92.60;;;;;;5023592;28;20437;-65
2023/09/23 08:49:29;;;;;;;4.00;1.20;;;16.00;92.90;;;;;;5024695;28;20434;-65
2023/09/23 08:51:56;;;;;;;5.07;1.20;;;16.20;91.30;;;;;;5075388;22;20482;-67
2023/09/23 08:54:25;;;;;;;3.80;1.10;;;16.20;90.80;;;;;;5074043;28;20414;-64
2023/09/23 08:56:54;;;;;;;1.90;1.00;;;16.40;91.10;;;;;;5071662;28;20414;-65
2023/09/23 08:59:21;;;;;;;1.40;0.90;;;16.60;91.10;;;;;;5066967;28;20429;-73
2023/09/23 09:01:47;;;;;;;1.90;0.90;;;17.00;90.00;;;;;;5044134;28;20886;-73
2023/09/23 09:04:16;;;;;;;2.58;1.10;;;17.40;88.50;;;;;;5044679;28;20433;-75
2023/09/23 09:06:50;;;;;;;3.47;1.10;;;17.70;85.90;;;;;;5049470;28;20511;-74
2023/09/23 09:09:17;;;;;;;3.22;1.20;;;17.90;82.50;;;;;;5063052;28;20515;-73
2023/09/23 09:11:46;;;;;;;2.30;0.98;;;17.90;81.80;;;;;;5050130;28;20462;-75
2023/09/23 09:14:13;;;;;;;2.38;1.20;;;17.70;82.20;;;;;;5056878;28;20886;-73
2023/09/23 09:16:40;;;;;;;2.45;1.00;;;17.60;83.20;;;;;;5047956;28;20807;-74
2023/09/23 09:19:07;;;;;;;4.05;1.40;;;17.50;83.30;;;;;;5046178;28;20456;-75
2023/09/23 09:21:35;;;;;;;3.43;1.20;;;17.50;84.00;;;;;;5052548;28;20430;-75
2023/09/23 09:24:03;;;;;;;2.75;1.10;;;17.60;84.00;;;;;;5049084;28;20515;-73
2023/09/23 09:26:30;;;;;;;2.85;1.08;;;17.70;82.30;;;;;;5054296;28;20428;-74
2023/09/23 09:28:57;;;;;;;3.33;1.20;;;17.70;82.00;;;;;;5046270;28;20456;-75
2023/09/23 09:31:28;;;;;;;2.25;0.80;;;17.60;80.50;;;;;;5044626;28;20498;-74
2023/09/23 09:33:57;;;;;;;1.90;1.00;;;17.40;82.80;;;;;;5037365;28;20460;-74
2023/09/23 09:36:25;;;;;;;2.13;0.80;;;17.60;82.30;;;;;;5049918;28;20432;-75
2023/09/23 09:38:55;;;;;;;3.33;0.80;;;17.80;81.00;;;;;;5047090;28;20441;-75
2023/09/23 09:41:30;;;;;;;2.80;1.10;;;18.00;80.40;;;;;;5051046;28;20521;-75
2023/09/23 09:44:00;;;;;;;2.28;0.90;;;18.20;80.50;;;;;;5041629;28;20994;-74
2023/09/23 09:46:27;;;;;;;2.70;1.13;;;18.40;78.90;;;;;;5056566;28;20963;-75
2023/09/23 09:48:57;;;;;;;1.70;0.90;;;18.40;77.50;;;;;;5045558;28;20516;-74
2023/09/23 09:51:25;;;;;;;2.00;1.00;;;18.40;77.80;;;;;;5049460;28;20795;-75
2023/09/23 09:53:53;;;;;;;2.00;1.00;;;18.50;77.20;;;;;;5062458;28;20417;-74
2023/09/23 09:56:21;;;;;;;2.10;1.00;;;18.50;75.60;;;;;;5046448;28;20452;-74
2023/09/23 09:58:49;;;;;;;3.67;1.10;;;18.40;75.90;;;;;;5049903;28;20460;-74
2023/09/23 10:01:17;;;;;;;3.10;1.40;;;18.40;76.60;;;;;;5053870;28;20423;-74
2023/09/23 10:03:45;;;;;;;2.30;1.10;;;18.20;76.30;;;;;;5045520;28;20448;-73
2023/09/23 10:06:19;;;;;;;3.80;1.10;;;17.90;77.10;;;;;;5058625;28;20412;-74
2023/09/23 10:08:48;;;;;;;3.28;1.02;;;17.50;77.70;;;;;;5060473;28;20408;-74
2023/09/23 10:11:17;;;;;;;2.05;1.00;;;17.40;78.70;;;;;;5064059;28;20926;-74
2023/09/23 10:13:43;;;;;;;2.47;1.00;;;17.40;78.90;;;;;;5051336;28;20432;-74
2023/09/23 10:16:13;;;;;;;2.10;1.10;;;17.70;77.60;;;;;;5050783;28;20440;-74
2023/09/23 10:18:41;;;;;;;1.90;1.00;;;18.00;76.30;;;;;;5052344;28;20538;-74
2023/09/23 10:21:09;;;;;;;1.50;0.90;;;18.30;75.00;;;;;;5044454;28;20527;-75
2023/09/23 10:23:38;;;;;;;2.00;1.00;;;18.40;74.20;;;;;;5040832;28;20904;-76
2023/09/23 10:26:18;;;;;;;2.40;1.00;;;18.60;73.20;;;;;;5039020;28;20528;-74
2023/09/23 10:28:57;;;;;;;3.28;1.35;;;18.60;73.00;;;;;;5050747;28;20512;-76
2023/09/23 10:31:27;;;;;;;1.60;0.90;;;18.80;72.70;;;;;;5040264;28;20651;-76
2023/09/23 10:33:54;;;;;;;2.50;1.00;;;18.90;69.70;;;;;;5042104;28;20425;-75
2023/09/23 10:36:21;;;;;;;1.73;0.70;;;18.80;69.40;;;;;;5053175;28;20408;-75
2023/09/23 10:38:48;;;;;;;2.22;1.00;;;18.70;69.90;;;;;;5047278;28;20482;-76
2023/09/23 10:41:17;;;;;;;2.90;1.10;;;18.50;70.70;;;;;;5052456;28;20434;-76
2023/09/23 10:43:52;;;;;;;2.70;0.95;;;18.40;71.00;;;;;;5044860;28;20540;-76
2023/09/23 10:46:18;;;;;;;2.17;1.20;;;18.10;71.50;;;;;;5047731;28;20433;-76
2023/09/23 10:48:45;;;;;;;1.55;0.60;;;17.90;73.50;;;;;;5040382;28;20781;-76
2023/09/23 10:51:12;;;;;;;2.10;0.80;;;17.60;75.30;;;;;;5049316;28;20433;-75
2023/09/23 10:53:41;;;;;;;2.80;0.90;;;17.50;76.40;;;;;;5050409;28;20459;-77
2023/09/23 10:56:10;;;;;;;2.50;1.00;;;17.70;75.80;;;;;;5044595;28;20436;-76
2023/09/23 10:58:38;;;;;;;2.40;0.80;;;17.90;75.20;;;;;;5040343;28;20441;-77
2023/09/23 11:01:05;;;;;;;2.20;0.90;;;18.10;75.00;;;;;;5047527;28;20914;-77
2023/09/23 11:03:39;;;;;;;1.90;1.10;;;18.30;71.80;;;;;;5044051;28;20429;-76
2023/09/23 11:06:08;;;;;;;2.03;1.10;;;18.40;71.80;;;;;;5045158;28;20440;-76
2023/09/23 11:08:36;;;;;;;4.22;1.20;;;18.40;71.30;;;;;;5053054;28;20479;-77
2023/09/23 11:11:03;;;;;;;3.20;1.10;;;18.40;71.40;;;;;;5054808;28;20934;-77
2023/09/23 11:13:33;;;;;;;2.58;1.20;;;18.30;71.70;;;;;;5051871;28;20576;-76
2023/09/23 11:16:09;;;;;;;3.03;1.30;;;18.00;73.30;;;;;;5042719;28;20502;-76
2023/09/23 11:18:37;;;;;;;3.50;1.30;;;17.90;73.90;;;;;;5056154;28;20427;-77
2023/09/23 11:21:04;;;;;;;2.60;1.10;;;18.00;74.70;;;;;;5046352;28;20427;-76
2023/09/23 11:23:30;;;;;;;3.38;0.98;;;18.20;75.00;;;;;;5045572;28;20809;-76
2023/09/23 11:25:57;;;;;;;2.97;1.30;;;18.40;71.00;;;;;;5059559;28;20446;-77
2023/09/23 11:28:25;;;;;;;2.50;1.30;;;18.50;70.70;;;;;;5047188;28;20438;-76
2023/09/23 11:30:54;;;;;;;1.90;0.80;;;18.50;69.30;;;;;;5042330;28;20440;-76
2023/09/23 11:33:22;;;;;;;2.40;1.00;;;18.50;67.90;;;;;;5048558;28;20701;-77
2023/09/23 11:35:49;;;;;;;1.90;0.80;;;18.50;67.10;;;;;;5051574;28;20414;-71
2023/09/23 11:38:16;;;;;;;1.83;0.90;;;18.50;67.40;;;;;;5040029;28;20449;-72
2023/09/23 11:40:45;;;;;;;1.77;0.80;;;18.80;67.20;;;;;;5041865;28;20935;-71
2023/09/23 11:43:12;;;;;;;2.60;1.23;;;19.10;67.10;;;;;;5044679;28;20483;-72
2023/09/23 11:45:39;;;;;;;2.03;0.80;;;19.50;64.50;;;;;;5055598;28;20452;-76
2023/09/23 11:48:08;;;;;;;2.17;0.90;;;19.60;61.80;;;;;;5043389;28;20429;-76
2023/09/23 11:50:36;;;;;;;1.92;0.85;;;19.60;61.50;;;;;;5039870;28;20499;-76
2023/09/23 11:53:03;;;;;;;1.85;0.90;;;19.80;60.40;;;;;;5045317;28;20478;-75
2023/09/23 11:55:32;;;;;;;1.50;1.00;;;19.80;60.30;;;;;;5036671;28;20542;-77
2023/09/23 11:57:59;;;;;;;1.77;1.10;;;19.90;57.90;;;;;;5049157;28;20443;-75
2023/09/23 12:00:26;;;;;;;2.38;1.10;;;19.80;58.50;;;;;;5045907;28;20815;-76
2023/09/23 12:02:53;;;;;;;1.90;1.30;;;19.80;58.00;;;;;;5044357;28;20498;-76
2023/09/23 12:05:20;;;;;;;2.20;1.70;;;19.80;57.10;;;;;;5054876;28;20498;-77
2023/09/23 12:07:48;;;;;;;2.40;1.70;;;19.60;56.00;;;;;;5047098;28;20751;-74
2023/09/23 12:10:15;;;;;;;2.70;1.60;;;19.30;58.90;;;;;;5044432;28;20416;-75
2023/09/23 12:12:42;;;;;;;2.10;1.70;;;19.30;59.90;;;;;;5041563;28;20433;-75
2023/09/23 12:15:10;;;;;;;2.90;2.40;;;19.30;60.50;;;;;;5048486;28;20474;-74
2023/09/23 12:17:37;;;;;;;2.40;2.20;;;19.30;59.80;;;;;;5051736;28;20840;-74
2023/09/23 12:20:07;;;;;;;2.67;2.47;;;19.30;61.10;;;;;;5046423;28;20492;-73
2023/09/23 12:22:33;;;;;;;3.05;2.75;;;19.40;59.20;;;;;;5049034;28;20487;-76
2023/09/23 12:25:01;;;;;;;2.83;2.63;;;19.40;59.00;;;;;;5045120;28;20892;-76
2023/09/23 12:27:28;;;;;;;2.93;2.40;;;19.30;61.30;;;;;;5041431;28;20952;-74
2023/09/23 12:29:55;;;;;;;2.53;2.33;;;19.40;59.70;;;;;;5048161;28;20431;-74
2023/09/23 12:32:22;;;;;;;3.93;2.80;;;19.50;61.10;;;;;;5048793;28;20998;-76
2023/09/23 12:34:50;;;;;;;4.90;2.40;;;19.70;59.80;;;;;;5041271;28;20441;-75
2023/09/23 12:37:16;;;;;;;2.80;2.50;;;19.80;58.20;;;;;;5049049;28;20416;-75
2023/09/23 12:39:43;;;;;;;2.67;2.47;;;19.90;58.40;;;;;;5055677;28;20884;-76
2023/09/23 12:42:11;;;;;;;2.80;2.30;;;19.80;59.40;;;;;;5040357;28;20437;-74
2023/09/23 12:44:38;;;;;;;2.50;2.30;;;19.90;57.20;;;;;;5041467;28;20431;-76
2023/09/23 12:47:06;;;;;;;3.47;2.33;;;19.70;58.20;;;;;;5049623;28;20470;-76
2023/09/23 12:49:33;;;;;;;2.83;2.50;;;19.50;59.10;;;;;;5046751;28;20890;-79
2023/09/23 12:51:59;;;;;;;2.90;2.40;;;19.40;60.20;;;;;;5050431;28;20444;-79